sensor_id;sensor_type;location;lat;lon;timestamp;P1;durP1;ratioP1;P2;durP2;ratioP2
7685;SDS011;3885;51.474;-2.576;2022-11-20T00:00:17;7.63;;;3.03;;
7685;SDS011;3885;51.474;-2.576;2022-11-20T00:02:44;13.90;;;3.43;;
7685;SDS011;3885;51.474;-2.576;2022-11-20T00:05:10;7.33;;;3.07;;
7685;SDS011;3885;51.474;-2.576;2022-11-20T00:07:38;9.40;;;2.97;;
7685;SDS011;3885;51.474;-2.576;2022-11-20T00:10:05;5.17;;;2.90;;
7685;SDS011;3885;51.474;-2.576;2022-11-20T00:12:32;9.63;;;2.93;;
7685;SDS011;3885;51.474;-2.576;2022-11-20T00:14:59;6.03;;;2.67;;
7685;SDS011;3885;51.474;-2.576;2022-11-20T00:17:27;3.17;;;2.47;;
7685;SDS011;3885;51.474;-2.576;2022-11-20T00:19:54;10.00;;;2.87;;
7685;SDS011;3885;51.474;-2.576;2022-11-20T00:22:21;6.23;;;3.40;;
7685;SDS011;3885;51.474;-2.576;2022-11-20T00:24:48;6.63;;;3.47;;
7685;SDS011;3885;51.474;-2.576;2022-11-20T00:27:15;5.43;;;2.77;;
7685;SDS011;3885;51.474;-2.576;2022-11-20T00:29:42;4.30;;;2.57;;
7685;SDS011;3885;51.474;-2.576;2022-11-20T00:32:09;7.60;;;2.50;;
7685;SDS011;3885;51.474;-2.576;2022-11-20T00:34:38;7.77;;;2.57;;
7685;SDS011;3885;51.474;-2.576;2022-11-20T00:37:05;3.57;;;2.93;;
7685;SDS011;3885;51.474;-2.576;2022-11-20T00:39:31;3.80;;;2.83;;
7685;SDS011;3885;51.474;-2.576;2022-11-20T00:41:58;10.87;;;2.50;;
7685;SDS011;3885;51.474;-2.576;2022-11-20T00:44:25;5.00;;;2.50;;
7685;SDS011;3885;51.474;-2.576;2022-11-20T00:46:52;3.70;;;2.50;;
7685;SDS011;3885;51.474;-2.576;2022-11-20T00:49:19;2.50;;;2.27;;
7685;SDS011;3885;51.474;-2.576;2022-11-20T00:51:47;2.00;;;1.80;;
7685;SDS011;3885;51.474;-2.576;2022-11-20T00:54:15;5.10;;;2.90;;
7685;SDS011;3885;51.474;-2.576;2022-11-20T00:56:42;6.00;;;3.40;;
7685;SDS011;3885;51.474;-2.576;2022-11-20T00:59:09;5.50;;;3.17;;
7685;SDS011;3885;51.474;-2.576;2022-11-20T01:01:36;2.47;;;2.07;;
7685;SDS011;3885;51.474;-2.576;2022-11-20T01:04:03;8.07;;;2.87;;
7685;SDS011;3885;51.474;-2.576;2022-11-20T01:06:31;9.47;;;2.67;;
7685;SDS011;3885;51.474;-2.576;2022-11-20T01:09:02;2.77;;;2.60;;
7685;SDS011;3885;51.474;-2.576;2022-11-20T01:11:31;5.20;;;2.53;;
7685;SDS011;3885;51.474;-2.576;2022-11-20T01:14:00;7.97;;;2.80;;
7685;SDS011;3885;51.474;-2.576;2022-11-20T01:16:29;6.77;;;2.73;;
7685;SDS011;3885;51.474;-2.576;2022-11-20T01:18:57;5.60;;;2.90;;
7685;SDS011;3885;51.474;-2.576;2022-11-20T01:21:26;12.30;;;2.60;;
7685;SDS011;3885;51.474;-2.576;2022-11-20T01:23:54;3.97;;;3.03;;
7685;SDS011;3885;51.474;-2.576;2022-11-20T01:26:24;7.07;;;3.50;;
7685;SDS011;3885;51.474;-2.576;2022-11-20T01:28:53;8.53;;;3.17;;
7685;SDS011;3885;51.474;-2.576;2022-11-20T01:31:21;3.47;;;2.90;;
7685;SDS011;3885;51.474;-2.576;2022-11-20T01:33:49;3.17;;;2.87;;
7685;SDS011;3885;51.474;-2.576;2022-11-20T01:36:17;5.50;;;2.33;;
7685;SDS011;3885;51.474;-2.576;2022-11-20T01:38:46;3.70;;;2.60;;
7685;SDS011;3885;51.474;-2.576;2022-11-20T01:41:14;7.50;;;2.80;;
7685;SDS011;3885;51.474;-2.576;2022-11-20T01:44:03;3.57;;;2.60;;
7685;SDS011;3885;51.474;-2.576;2022-11-20T01:46:30;3.80;;;2.50;;
7685;SDS011;3885;51.474;-2.576;2022-11-20T01:48:58;4.67;;;2.77;;
7685;SDS011;3885;51.474;-2.576;2022-11-20T01:51:28;4.57;;;2.70;;
7685;SDS011;3885;51.474;-2.576;2022-11-20T01:54:02;6.80;;;3.20;;
7685;SDS011;3885;51.474;-2.576;2022-11-20T01:56:33;9.90;;;2.67;;
7685;SDS011;3885;51.474;-2.576;2022-11-20T01:59:05;2.90;;;2.60;;
7685;SDS011;3885;51.474;-2.576;2022-11-20T02:01:35;2.40;;;2.30;;
7685;SDS011;3885;51.474;-2.576;2022-11-20T02:04:04;2.70;;;2.50;;
7685;SDS011;3885;51.474;-2.576;2022-11-20T02:06:32;6.10;;;2.60;;
7685;SDS011;3885;51.474;-2.576;2022-11-20T02:09:04;4.37;;;2.20;;
7685;SDS011;3885;51.474;-2.576;2022-11-20T02:11:31;2.97;;;2.53;;
7685;SDS011;3885;51.474;-2.576;2022-11-20T02:13:58;6.07;;;2.50;;
7685;SDS011;3885;51.474;-2.576;2022-11-20T02:16:28;3.60;;;2.70;;
7685;SDS011;3885;51.474;-2.576;2022-11-20T02:18:58;2.67;;;2.47;;
7685;SDS011;3885;51.474;-2.576;2022-11-20T02:21:32;2.70;;;2.43;;
7685;SDS011;3885;51.474;-2.576;2022-11-20T02:24:10;4.40;;;2.87;;
7685;SDS011;3885;51.474;-2.576;2022-11-20T02:26:41;5.13;;;3.10;;
7685;SDS011;3885;51.474;-2.576;2022-11-20T02:29:09;3.93;;;2.63;;
7685;SDS011;3885;51.474;-2.576;2022-11-20T02:31:37;2.30;;;2.10;;
7685;SDS011;3885;51.474;-2.576;2022-11-20T02:34:06;6.47;;;2.37;;
7685;SDS011;3885;51.474;-2.576;2022-11-20T02:36:33;2.90;;;1.90;;
7685;SDS011;3885;51.474;-2.576;2022-11-20T02:39:02;3.80;;;1.70;;
7685;SDS011;3885;51.474;-2.576;2022-11-20T02:41:31;3.77;;;2.00;;
7685;SDS011;3885;51.474;-2.576;2022-11-20T02:44:00;3.10;;;2.33;;
7685;SDS011;3885;51.474;-2.576;2022-11-20T02:46:28;3.27;;;2.03;;
7685;SDS011;3885;51.474;-2.576;2022-11-20T02:48:55;1.83;;;1.70;;
7685;SDS011;3885;51.474;-2.576;2022-11-20T02:51:22;2.00;;;1.80;;
7685;SDS011;3885;51.474;-2.576;2022-11-20T02:53:49;1.93;;;1.83;;
7685;SDS011;3885;51.474;-2.576;2022-11-20T02:56:17;2.27;;;1.80;;
7685;SDS011;3885;51.474;-2.576;2022-11-20T02:58:45;2.33;;;2.23;;
7685;SDS011;3885;51.474;-2.576;2022-11-20T03:01:12;2.50;;;2.30;;
7685;SDS011;3885;51.474;-2.576;2022-11-20T03:03:40;2.83;;;2.60;;
7685;SDS011;3885;51.474;-2.576;2022-11-20T03:06:07;4.87;;;2.00;;
7685;SDS011;3885;51.474;-2.576;2022-11-20T03:08:34;1.50;;;1.40;;
7685;SDS011;3885;51.474;-2.576;2022-11-20T03:11:04;5.00;;;2.07;;
7685;SDS011;3885;51.474;-2.576;2022-11-20T03:13:33;2.47;;;2.00;;
7685;SDS011;3885;51.474;-2.576;2022-11-20T03:16:09;2.83;;;2.07;;
7685;SDS011;3885;51.474;-2.576;2022-11-20T03:18:37;1.87;;;1.77;;
7685;SDS011;3885;51.474;-2.576;2022-11-20T03:21:05;2.40;;;1.80;;
7685;SDS011;3885;51.474;-2.576;2022-11-20T03:23:32;2.10;;;1.90;;
7685;SDS011;3885;51.474;-2.576;2022-11-20T03:26:10;2.30;;;2.00;;
7685;SDS011;3885;51.474;-2.576;2022-11-20T03:28:37;2.87;;;2.50;;
7685;SDS011;3885;51.474;-2.576;2022-11-20T03:31:05;4.83;;;3.80;;
7685;SDS011;3885;51.474;-2.576;2022-11-20T03:33:34;4.23;;;3.10;;
7685;SDS011;3885;51.474;-2.576;2022-11-20T03:36:02;3.40;;;2.63;;
7685;SDS011;3885;51.474;-2.576;2022-11-20T03:38:29;9.27;;;6.43;;
7685;SDS011;3885;51.474;-2.576;2022-11-20T03:41:00;8.43;;;4.90;;
7685;SDS011;3885;51.474;-2.576;2022-11-20T03:43:28;3.47;;;2.90;;
7685;SDS011;3885;51.474;-2.576;2022-11-20T03:45:55;4.03;;;3.10;;
7685;SDS011;3885;51.474;-2.576;2022-11-20T03:48:22;5.93;;;4.93;;
7685;SDS011;3885;51.474;-2.576;2022-11-20T03:50:50;2.97;;;2.33;;
7685;SDS011;3885;51.474;-2.576;2022-11-20T03:53:18;5.23;;;2.63;;
7685;SDS011;3885;51.474;-2.576;2022-11-20T03:55:45;2.47;;;2.27;;
7685;SDS011;3885;51.474;-2.576;2022-11-20T03:58:16;4.13;;;2.20;;
7685;SDS011;3885;51.474;-2.576;2022-11-20T04:00:43;2.30;;;2.10;;
7685;SDS011;3885;51.474;-2.576;2022-11-20T04:03:10;5.23;;;2.83;;
7685;SDS011;3885;51.474;-2.576;2022-11-20T04:05:37;6.40;;;3.30;;
7685;SDS011;3885;51.474;-2.576;2022-11-20T04:08:06;3.63;;;3.23;;
7685;SDS011;3885;51.474;-2.576;2022-11-20T04:10:33;3.10;;;2.20;;
7685;SDS011;3885;51.474;-2.576;2022-11-20T04:13:00;3.00;;;2.43;;
7685;SDS011;3885;51.474;-2.576;2022-11-20T04:15:27;2.77;;;2.57;;
7685;SDS011;3885;51.474;-2.576;2022-11-20T04:17:54;21.43;;;2.70;;
7685;SDS011;3885;51.474;-2.576;2022-11-20T04:20:21;14.63;;;4.27;;
7685;SDS011;3885;51.474;-2.576;2022-11-20T04:22:48;4.10;;;3.50;;
7685;SDS011;3885;51.474;-2.576;2022-11-20T04:25:18;6.57;;;4.23;;
7685;SDS011;3885;51.474;-2.576;2022-11-20T04:27:44;5.53;;;3.27;;
7685;SDS011;3885;51.474;-2.576;2022-11-20T04:30:12;3.63;;;2.73;;
7685;SDS011;3885;51.474;-2.576;2022-11-20T04:32:39;3.80;;;3.50;;
7685;SDS011;3885;51.474;-2.576;2022-11-20T04:35:06;6.80;;;4.87;;
7685;SDS011;3885;51.474;-2.576;2022-11-20T04:37:33;6.33;;;4.20;;
7685;SDS011;3885;51.474;-2.576;2022-11-20T04:40:00;7.80;;;4.70;;
7685;SDS011;3885;51.474;-2.576;2022-11-20T04:42:28;4.53;;;3.00;;
7685;SDS011;3885;51.474;-2.576;2022-11-20T04:44:55;2.60;;;2.40;;
7685;SDS011;3885;51.474;-2.576;2022-11-20T04:47:23;2.17;;;1.60;;
7685;SDS011;3885;51.474;-2.576;2022-11-20T04:49:50;2.20;;;1.93;;
7685;SDS011;3885;51.474;-2.576;2022-11-20T04:52:17;2.60;;;2.30;;
7685;SDS011;3885;51.474;-2.576;2022-11-20T04:54:44;2.07;;;1.97;;
7685;SDS011;3885;51.474;-2.576;2022-11-20T04:57:12;2.53;;;2.33;;
7685;SDS011;3885;51.474;-2.576;2022-11-20T04:59:41;8.20;;;5.23;;
7685;SDS011;3885;51.474;-2.576;2022-11-20T05:02:09;10.93;;;6.67;;
7685;SDS011;3885;51.474;-2.576;2022-11-20T05:04:36;15.53;;;8.60;;
7685;SDS011;3885;51.474;-2.576;2022-11-20T05:07:03;8.87;;;4.23;;
7685;SDS011;3885;51.474;-2.576;2022-11-20T05:09:30;12.90;;;9.20;;
7685;SDS011;3885;51.474;-2.576;2022-11-20T05:11:57;13.07;;;8.20;;
7685;SDS011;3885;51.474;-2.576;2022-11-20T05:14:24;15.63;;;5.93;;
7685;SDS011;3885;51.474;-2.576;2022-11-20T05:16:52;8.63;;;4.73;;
7685;SDS011;3885;51.474;-2.576;2022-11-20T05:19:19;5.93;;;3.63;;
7685;SDS011;3885;51.474;-2.576;2022-11-20T05:21:46;4.20;;;3.03;;
7685;SDS011;3885;51.474;-2.576;2022-11-20T05:24:13;2.53;;;1.77;;
7685;SDS011;3885;51.474;-2.576;2022-11-20T05:26:40;4.60;;;2.90;;
7685;SDS011;3885;51.474;-2.576;2022-11-20T05:29:09;3.03;;;2.10;;
7685;SDS011;3885;51.474;-2.576;2022-11-20T05:31:36;6.73;;;1.87;;
7685;SDS011;3885;51.474;-2.576;2022-11-20T05:34:07;4.80;;;2.93;;
7685;SDS011;3885;51.474;-2.576;2022-11-20T05:36:34;3.10;;;2.83;;
7685;SDS011;3885;51.474;-2.576;2022-11-20T05:39:01;2.43;;;2.23;;
7685;SDS011;3885;51.474;-2.576;2022-11-20T05:41:28;2.90;;;2.60;;
7685;SDS011;3885;51.474;-2.576;2022-11-20T05:43:56;8.00;;;4.57;;
7685;SDS011;3885;51.474;-2.576;2022-11-20T05:46:23;2.90;;;2.00;;
7685;SDS011;3885;51.474;-2.576;2022-11-20T05:48:51;6.07;;;3.40;;
7685;SDS011;3885;51.474;-2.576;2022-11-20T05:51:19;3.50;;;3.20;;
7685;SDS011;3885;51.474;-2.576;2022-11-20T05:53:46;3.93;;;3.23;;
7685;SDS011;3885;51.474;-2.576;2022-11-20T05:56:14;2.37;;;2.17;;
7685;SDS011;3885;51.474;-2.576;2022-11-20T05:58:42;3.97;;;2.70;;
7685;SDS011;3885;51.474;-2.576;2022-11-20T06:01:10;2.70;;;2.50;;
7685;SDS011;3885;51.474;-2.576;2022-11-20T06:03:39;2.10;;;1.90;;
7685;SDS011;3885;51.474;-2.576;2022-11-20T06:06:07;2.57;;;1.87;;
7685;SDS011;3885;51.474;-2.576;2022-11-20T06:08:36;3.40;;;1.90;;
7685;SDS011;3885;51.474;-2.576;2022-11-20T06:11:03;1.83;;;1.13;;
7685;SDS011;3885;51.474;-2.576;2022-11-20T06:13:31;1.43;;;1.10;;
7685;SDS011;3885;51.474;-2.576;2022-11-20T06:15:58;1.30;;;1.20;;
7685;SDS011;3885;51.474;-2.576;2022-11-20T06:18:25;1.80;;;1.30;;
7685;SDS011;3885;51.474;-2.576;2022-11-20T06:21:00;2.07;;;1.70;;
7685;SDS011;3885;51.474;-2.576;2022-11-20T06:23:29;2.07;;;1.30;;
7685;SDS011;3885;51.474;-2.576;2022-11-20T06:25:58;3.00;;;0.80;;
7685;SDS011;3885;51.474;-2.576;2022-11-20T06:28:28;4.70;;;1.83;;
7685;SDS011;3885;51.474;-2.576;2022-11-20T06:30:55;5.00;;;2.27;;
7685;SDS011;3885;51.474;-2.576;2022-11-20T06:33:21;6.33;;;2.60;;
7685;SDS011;3885;51.474;-2.576;2022-11-20T06:35:48;2.90;;;1.97;;
7685;SDS011;3885;51.474;-2.576;2022-11-20T06:38:15;2.97;;;1.23;;
7685;SDS011;3885;51.474;-2.576;2022-11-20T06:40:42;1.83;;;1.60;;
7685;SDS011;3885;51.474;-2.576;2022-11-20T06:43:11;6.30;;;1.37;;
7685;SDS011;3885;51.474;-2.576;2022-11-20T06:45:38;6.23;;;1.53;;
7685;SDS011;3885;51.474;-2.576;2022-11-20T06:48:05;4.17;;;1.60;;
7685;SDS011;3885;51.474;-2.576;2022-11-20T06:50:32;1.57;;;1.10;;
7685;SDS011;3885;51.474;-2.576;2022-11-20T06:53:00;3.73;;;1.20;;
7685;SDS011;3885;51.474;-2.576;2022-11-20T06:55:28;3.27;;;1.07;;
7685;SDS011;3885;51.474;-2.576;2022-11-20T06:57:55;8.33;;;0.70;;
7685;SDS011;3885;51.474;-2.576;2022-11-20T07:00:23;3.07;;;1.17;;
7685;SDS011;3885;51.474;-2.576;2022-11-20T07:02:51;5.53;;;1.93;;
7685;SDS011;3885;51.474;-2.576;2022-11-20T07:05:18;7.20;;;1.27;;
7685;SDS011;3885;51.474;-2.576;2022-11-20T07:07:44;11.50;;;2.00;;
7685;SDS011;3885;51.474;-2.576;2022-11-20T07:10:11;1.50;;;1.07;;
7685;SDS011;3885;51.474;-2.576;2022-11-20T07:12:38;2.67;;;1.00;;
7685;SDS011;3885;51.474;-2.576;2022-11-20T07:15:06;1.40;;;1.27;;
7685;SDS011;3885;51.474;-2.576;2022-11-20T07:17:35;4.43;;;1.03;;
7685;SDS011;3885;51.474;-2.576;2022-11-20T07:20:02;3.37;;;1.50;;
7685;SDS011;3885;51.474;-2.576;2022-11-20T07:22:29;3.43;;;1.20;;
7685;SDS011;3885;51.474;-2.576;2022-11-20T07:24:55;3.60;;;1.70;;
7685;SDS011;3885;51.474;-2.576;2022-11-20T07:27:22;8.17;;;3.10;;
7685;SDS011;3885;51.474;-2.576;2022-11-20T07:29:49;7.20;;;1.57;;
7685;SDS011;3885;51.474;-2.576;2022-11-20T07:32:16;10.33;;;1.57;;
7685;SDS011;3885;51.474;-2.576;2022-11-20T07:34:45;7.43;;;3.10;;
7685;SDS011;3885;51.474;-2.576;2022-11-20T07:37:12;4.97;;;3.73;;
7685;SDS011;3885;51.474;-2.576;2022-11-20T07:39:39;6.70;;;4.90;;
7685;SDS011;3885;51.474;-2.576;2022-11-20T07:42:06;10.30;;;4.70;;
7685;SDS011;3885;51.474;-2.576;2022-11-20T07:44:33;7.97;;;4.90;;
7685;SDS011;3885;51.474;-2.576;2022-11-20T07:47:01;20.10;;;11.27;;
7685;SDS011;3885;51.474;-2.576;2022-11-20T07:49:28;17.43;;;11.93;;
7685;SDS011;3885;51.474;-2.576;2022-11-20T07:51:56;11.43;;;9.07;;
7685;SDS011;3885;51.474;-2.576;2022-11-20T07:54:23;34.77;;;16.33;;
7685;SDS011;3885;51.474;-2.576;2022-11-20T07:56:50;30.30;;;17.77;;
7685;SDS011;3885;51.474;-2.576;2022-11-20T07:59:17;27.70;;;13.93;;
7685;SDS011;3885;51.474;-2.576;2022-11-20T08:01:44;26.23;;;14.77;;
7685;SDS011;3885;51.474;-2.576;2022-11-20T08:04:11;19.73;;;10.73;;
7685;SDS011;3885;51.474;-2.576;2022-11-20T08:06:40;24.47;;;15.37;;
7685;SDS011;3885;51.474;-2.576;2022-11-20T08:09:08;31.40;;;18.17;;
7685;SDS011;3885;51.474;-2.576;2022-11-20T08:11:35;33.67;;;19.17;;
7685;SDS011;3885;51.474;-2.576;2022-11-20T08:14:19;27.27;;;15.67;;
7685;SDS011;3885;51.474;-2.576;2022-11-20T08:16:48;18.83;;;11.80;;
7685;SDS011;3885;51.474;-2.576;2022-11-20T08:19:16;36.00;;;18.80;;
7685;SDS011;3885;51.474;-2.576;2022-11-20T08:21:44;28.40;;;15.93;;
7685;SDS011;3885;51.474;-2.576;2022-11-20T08:24:12;22.37;;;13.00;;
7685;SDS011;3885;51.474;-2.576;2022-11-20T08:26:39;19.63;;;11.07;;
7685;SDS011;3885;51.474;-2.576;2022-11-20T08:29:06;34.43;;;15.60;;
7685;SDS011;3885;51.474;-2.576;2022-11-20T08:31:33;28.87;;;15.23;;
7685;SDS011;3885;51.474;-2.576;2022-11-20T08:34:00;22.93;;;14.27;;
7685;SDS011;3885;51.474;-2.576;2022-11-20T08:36:27;20.43;;;12.53;;
7685;SDS011;3885;51.474;-2.576;2022-11-20T08:38:55;22.77;;;12.90;;
7685;SDS011;3885;51.474;-2.576;2022-11-20T08:41:23;17.20;;;10.87;;
7685;SDS011;3885;51.474;-2.576;2022-11-20T08:43:51;19.10;;;9.70;;
7685;SDS011;3885;51.474;-2.576;2022-11-20T08:46:19;16.10;;;9.47;;
7685;SDS011;3885;51.474;-2.576;2022-11-20T08:48:46;20.13;;;9.57;;
7685;SDS011;3885;51.474;-2.576;2022-11-20T08:51:13;17.07;;;9.70;;
7685;SDS011;3885;51.474;-2.576;2022-11-20T08:53:40;14.83;;;8.43;;
7685;SDS011;3885;51.474;-2.576;2022-11-20T08:56:07;14.27;;;9.63;;
7685;SDS011;3885;51.474;-2.576;2022-11-20T08:58:36;11.20;;;8.80;;
7685;SDS011;3885;51.474;-2.576;2022-11-20T09:01:03;21.97;;;9.60;;
7685;SDS011;3885;51.474;-2.576;2022-11-20T09:03:30;13.20;;;9.07;;
7685;SDS011;3885;51.474;-2.576;2022-11-20T09:05:58;17.27;;;9.90;;
7685;SDS011;3885;51.474;-2.576;2022-11-20T09:08:26;27.47;;;10.23;;
7685;SDS011;3885;51.474;-2.576;2022-11-20T09:10:53;15.40;;;8.50;;
7685;SDS011;3885;51.474;-2.576;2022-11-20T09:13:20;24.73;;;8.67;;
7685;SDS011;3885;51.474;-2.576;2022-11-20T09:15:53;10.67;;;7.27;;
7685;SDS011;3885;51.474;-2.576;2022-11-20T09:18:21;11.30;;;6.80;;
7685;SDS011;3885;51.474;-2.576;2022-11-20T09:20:48;11.73;;;7.10;;
7685;SDS011;3885;51.474;-2.576;2022-11-20T09:23:16;15.00;;;5.67;;
7685;SDS011;3885;51.474;-2.576;2022-11-20T09:25:43;7.70;;;5.03;;
7685;SDS011;3885;51.474;-2.576;2022-11-20T09:28:10;16.47;;;5.50;;
7685;SDS011;3885;51.474;-2.576;2022-11-20T09:30:37;11.27;;;4.27;;
7685;SDS011;3885;51.474;-2.576;2022-11-20T09:33:06;13.97;;;5.10;;
7685;SDS011;3885;51.474;-2.576;2022-11-20T09:35:33;25.10;;;4.53;;
7685;SDS011;3885;51.474;-2.576;2022-11-20T09:38:04;19.37;;;5.23;;
7685;SDS011;3885;51.474;-2.576;2022-11-20T09:40:31;14.03;;;4.30;;
7685;SDS011;3885;51.474;-2.576;2022-11-20T09:43:00;9.77;;;3.80;;
7685;SDS011;3885;51.474;-2.576;2022-11-20T09:45:36;9.73;;;5.07;;
7685;SDS011;3885;51.474;-2.576;2022-11-20T09:48:17;18.43;;;4.80;;
7685;SDS011;3885;51.474;-2.576;2022-11-20T09:51:02;11.73;;;4.90;;
7685;SDS011;3885;51.474;-2.576;2022-11-20T09:53:39;8.53;;;3.10;;
7685;SDS011;3885;51.474;-2.576;2022-11-20T09:56:09;5.00;;;2.70;;
7685;SDS011;3885;51.474;-2.576;2022-11-20T09:58:38;12.77;;;3.10;;
7685;SDS011;3885;51.474;-2.576;2022-11-20T10:01:10;12.30;;;4.27;;
7685;SDS011;3885;51.474;-2.576;2022-11-20T10:03:41;8.73;;;3.50;;
7685;SDS011;3885;51.474;-2.576;2022-11-20T10:06:15;7.70;;;4.60;;
7685;SDS011;3885;51.474;-2.576;2022-11-20T10:08:44;17.23;;;3.43;;
7685;SDS011;3885;51.474;-2.576;2022-11-20T10:11:18;13.80;;;3.17;;
7685;SDS011;3885;51.474;-2.576;2022-11-20T10:13:56;7.50;;;2.20;;
7685;SDS011;3885;51.474;-2.576;2022-11-20T10:16:33;16.73;;;3.00;;
7685;SDS011;3885;51.474;-2.576;2022-11-20T10:19:13;4.13;;;2.80;;
7685;SDS011;3885;51.474;-2.576;2022-11-20T10:21:55;9.17;;;2.67;;
7685;SDS011;3885;51.474;-2.576;2022-11-20T10:24:48;11.30;;;1.70;;
7685;SDS011;3885;51.474;-2.576;2022-11-20T10:30:22;6.13;;;2.10;;
7685;SDS011;3885;51.474;-2.576;2022-11-20T10:32:50;14.80;;;1.60;;
7685;SDS011;3885;51.474;-2.576;2022-11-20T10:35:21;14.97;;;2.13;;
7685;SDS011;3885;51.474;-2.576;2022-11-20T10:37:54;7.70;;;2.17;;
7685;SDS011;3885;51.474;-2.576;2022-11-20T10:40:27;22.60;;;3.10;;
7685;SDS011;3885;51.474;-2.576;2022-11-20T10:43:01;5.13;;;1.63;;
7685;SDS011;3885;51.474;-2.576;2022-11-20T10:45:36;15.33;;;2.00;;
7685;SDS011;3885;51.474;-2.576;2022-11-20T10:48:20;4.60;;;1.53;;
7685;SDS011;3885;51.474;-2.576;2022-11-20T10:50:57;14.93;;;2.30;;
7685;SDS011;3885;51.474;-2.576;2022-11-20T10:56:21;16.23;;;2.50;;
7685;SDS011;3885;51.474;-2.576;2022-11-20T10:59:02;9.07;;;1.80;;
7685;SDS011;3885;51.474;-2.576;2022-11-20T11:01:39;24.73;;;2.60;;
7685;SDS011;3885;51.474;-2.576;2022-11-20T11:04:10;11.33;;;2.90;;
7685;SDS011;3885;51.474;-2.576;2022-11-20T11:06:54;18.37;;;2.27;;
7685;SDS011;3885;51.474;-2.576;2022-11-20T11:09:29;16.23;;;2.40;;
7685;SDS011;3885;51.474;-2.576;2022-11-20T11:12:00;16.90;;;2.70;;
7685;SDS011;3885;51.474;-2.576;2022-11-20T11:14:27;38.20;;;12.93;;
7685;SDS011;3885;51.474;-2.576;2022-11-20T11:16:54;25.67;;;5.83;;
7685;SDS011;3885;51.474;-2.576;2022-11-20T11:19:22;11.93;;;2.17;;
7685;SDS011;3885;51.474;-2.576;2022-11-20T11:21:50;12.30;;;2.37;;
7685;SDS011;3885;51.474;-2.576;2022-11-20T11:24:21;23.23;;;2.47;;
7685;SDS011;3885;51.474;-2.576;2022-11-20T11:26:53;14.00;;;2.17;;
7685;SDS011;3885;51.474;-2.576;2022-11-20T11:29:22;12.40;;;2.43;;
7685;SDS011;3885;51.474;-2.576;2022-11-20T11:32:02;18.60;;;2.17;;
7685;SDS011;3885;51.474;-2.576;2022-11-20T11:34:30;6.13;;;1.67;;
7685;SDS011;3885;51.474;-2.576;2022-11-20T11:36:58;10.60;;;1.93;;
7685;SDS011;3885;51.474;-2.576;2022-11-20T11:39:28;10.03;;;2.10;;
7685;SDS011;3885;51.474;-2.576;2022-11-20T11:41:56;26.57;;;2.67;;
7685;SDS011;3885;51.474;-2.576;2022-11-20T11:44:24;3.33;;;1.20;;
7685;SDS011;3885;51.474;-2.576;2022-11-20T11:47:15;9.87;;;1.67;;
7685;SDS011;3885;51.474;-2.576;2022-11-20T11:49:48;15.90;;;2.43;;
7685;SDS011;3885;51.474;-2.576;2022-11-20T11:52:15;11.10;;;2.87;;
7685;SDS011;3885;51.474;-2.576;2022-11-20T11:54:47;12.80;;;3.67;;
7685;SDS011;3885;51.474;-2.576;2022-11-20T11:57:20;14.93;;;2.80;;
7685;SDS011;3885;51.474;-2.576;2022-11-20T11:59:54;7.07;;;2.30;;
7685;SDS011;3885;51.474;-2.576;2022-11-20T12:02:29;11.73;;;3.53;;
7685;SDS011;3885;51.474;-2.576;2022-11-20T12:05:03;16.37;;;3.97;;
7685;SDS011;3885;51.474;-2.576;2022-11-20T12:07:38;10.70;;;2.70;;
7685;SDS011;3885;51.474;-2.576;2022-11-20T12:10:12;19.60;;;4.30;;
7685;SDS011;3885;51.474;-2.576;2022-11-20T12:12:44;13.60;;;2.57;;
7685;SDS011;3885;51.474;-2.576;2022-11-20T12:15:16;7.40;;;1.70;;
7685;SDS011;3885;51.474;-2.576;2022-11-20T12:17:52;9.13;;;2.60;;
7685;SDS011;3885;51.474;-2.576;2022-11-20T12:20:19;7.47;;;2.10;;
7685;SDS011;3885;51.474;-2.576;2022-11-20T12:22:52;14.30;;;2.27;;
7685;SDS011;3885;51.474;-2.576;2022-11-20T12:25:28;9.13;;;2.80;;
7685;SDS011;3885;51.474;-2.576;2022-11-20T12:30:58;11.60;;;2.70;;
7685;SDS011;3885;51.474;-2.576;2022-11-20T12:33:41;8.50;;;1.63;;
7685;SDS011;3885;51.474;-2.576;2022-11-20T12:36:17;5.43;;;1.30;;
7685;SDS011;3885;51.474;-2.576;2022-11-20T12:41:43;11.90;;;1.37;;
7685;SDS011;3885;51.474;-2.576;2022-11-20T12:50:32;2.73;;;0.80;;
7685;SDS011;3885;51.474;-2.576;2022-11-20T12:53:10;10.93;;;1.53;;
7685;SDS011;3885;51.474;-2.576;2022-11-20T12:55:47;8.97;;;2.17;;
7685;SDS011;3885;51.474;-2.576;2022-11-20T12:58:22;2.10;;;1.07;;
7685;SDS011;3885;51.474;-2.576;2022-11-20T13:00:56;5.70;;;1.33;;
7685;SDS011;3885;51.474;-2.576;2022-11-20T13:03:37;14.33;;;1.73;;
7685;SDS011;3885;51.474;-2.576;2022-11-20T13:06:13;5.40;;;1.20;;
7685;SDS011;3885;51.474;-2.576;2022-11-20T13:08:43;4.50;;;1.60;;
7685;SDS011;3885;51.474;-2.576;2022-11-20T13:11:14;6.63;;;1.13;;
7685;SDS011;3885;51.474;-2.576;2022-11-20T13:13:55;2.37;;;1.10;;
7685;SDS011;3885;51.474;-2.576;2022-11-20T13:16:31;13.23;;;1.67;;
7685;SDS011;3885;51.474;-2.576;2022-11-20T13:19:01;0.87;;;0.83;;
7685;SDS011;3885;51.474;-2.576;2022-11-20T13:21:35;11.63;;;1.97;;
7685;SDS011;3885;51.474;-2.576;2022-11-20T13:24:04;5.80;;;1.50;;
7685;SDS011;3885;51.474;-2.576;2022-11-20T13:26:31;10.70;;;1.70;;
7685;SDS011;3885;51.474;-2.576;2022-11-20T13:29:05;5.43;;;0.90;;
7685;SDS011;3885;51.474;-2.576;2022-11-20T13:31:38;2.30;;;0.90;;
7685;SDS011;3885;51.474;-2.576;2022-11-20T13:34:10;4.93;;;1.03;;
7685;SDS011;3885;51.474;-2.576;2022-11-20T13:36:48;4.00;;;1.67;;
7685;SDS011;3885;51.474;-2.576;2022-11-20T13:39:23;16.00;;;1.43;;
7685;SDS011;3885;51.474;-2.576;2022-11-20T13:41:53;8.43;;;1.03;;
7685;SDS011;3885;51.474;-2.576;2022-11-20T13:44:24;7.83;;;1.80;;
7685;SDS011;3885;51.474;-2.576;2022-11-20T13:46:55;6.07;;;1.40;;
7685;SDS011;3885;51.474;-2.576;2022-11-20T13:49:23;11.70;;;1.30;;
7685;SDS011;3885;51.474;-2.576;2022-11-20T13:51:55;5.83;;;0.67;;
7685;SDS011;3885;51.474;-2.576;2022-11-20T13:54:44;2.67;;;0.90;;
7685;SDS011;3885;51.474;-2.576;2022-11-20T14:00:14;3.03;;;1.10;;
7685;SDS011;3885;51.474;-2.576;2022-11-20T14:02:43;5.03;;;1.00;;
7685;SDS011;3885;51.474;-2.576;2022-11-20T14:05:17;9.57;;;1.00;;
7685;SDS011;3885;51.474;-2.576;2022-11-20T14:07:47;12.80;;;1.50;;
7685;SDS011;3885;51.474;-2.576;2022-11-20T14:10:22;2.43;;;0.83;;
7685;SDS011;3885;51.474;-2.576;2022-11-20T14:12:51;11.33;;;1.33;;
7685;SDS011;3885;51.474;-2.576;2022-11-20T14:15:26;3.73;;;1.30;;
7685;SDS011;3885;51.474;-2.576;2022-11-20T14:17:54;5.23;;;1.03;;
7685;SDS011;3885;51.474;-2.576;2022-11-20T14:20:21;3.10;;;1.40;;
7685;SDS011;3885;51.474;-2.576;2022-11-20T14:22:51;4.83;;;1.30;;
7685;SDS011;3885;51.474;-2.576;2022-11-20T14:25:20;6.10;;;1.23;;
7685;SDS011;3885;51.474;-2.576;2022-11-20T14:27:50;8.87;;;1.03;;
7685;SDS011;3885;51.474;-2.576;2022-11-20T14:30:20;4.00;;;1.53;;
7685;SDS011;3885;51.474;-2.576;2022-11-20T14:32:49;5.20;;;1.53;;
7685;SDS011;3885;51.474;-2.576;2022-11-20T14:35:18;2.23;;;1.00;;
7685;SDS011;3885;51.474;-2.576;2022-11-20T14:37:47;7.83;;;0.83;;
7685;SDS011;3885;51.474;-2.576;2022-11-20T14:40:24;8.23;;;2.07;;
7685;SDS011;3885;51.474;-2.576;2022-11-20T14:42:56;6.90;;;1.47;;
7685;SDS011;3885;51.474;-2.576;2022-11-20T14:45:23;4.70;;;1.00;;
7685;SDS011;3885;51.474;-2.576;2022-11-20T14:47:53;5.03;;;1.00;;
7685;SDS011;3885;51.474;-2.576;2022-11-20T14:50:22;3.03;;;0.90;;
7685;SDS011;3885;51.474;-2.576;2022-11-20T14:52:51;5.27;;;1.70;;
7685;SDS011;3885;51.474;-2.576;2022-11-20T14:55:29;2.60;;;1.10;;
7685;SDS011;3885;51.474;-2.576;2022-11-20T14:57:58;4.17;;;1.20;;
7685;SDS011;3885;51.474;-2.576;2022-11-20T15:00:27;3.23;;;1.10;;
7685;SDS011;3885;51.474;-2.576;2022-11-20T15:02:56;6.83;;;1.90;;
7685;SDS011;3885;51.474;-2.576;2022-11-20T15:05:25;7.50;;;1.10;;
7685;SDS011;3885;51.474;-2.576;2022-11-20T15:08:15;5.53;;;1.60;;
7685;SDS011;3885;51.474;-2.576;2022-11-20T15:10:46;9.77;;;1.60;;
7685;SDS011;3885;51.474;-2.576;2022-11-20T15:13:15;10.20;;;1.53;;
7685;SDS011;3885;51.474;-2.576;2022-11-20T15:15:44;2.97;;;1.00;;
7685;SDS011;3885;51.474;-2.576;2022-11-20T15:18:14;3.20;;;1.20;;
7685;SDS011;3885;51.474;-2.576;2022-11-20T15:20:44;7.30;;;1.33;;
7685;SDS011;3885;51.474;-2.576;2022-11-20T15:23:12;10.80;;;1.87;;
7685;SDS011;3885;51.474;-2.576;2022-11-20T15:25:40;9.47;;;1.33;;
7685;SDS011;3885;51.474;-2.576;2022-11-20T15:28:11;2.67;;;1.30;;
7685;SDS011;3885;51.474;-2.576;2022-11-20T15:30:43;6.03;;;1.00;;